Etusivu
METAR-TAF:

METAR-TAF

Lentoasemat :

Illinois Valley Regional Airport (Walter A. Duncan Field)

Peru / LaSalle, Illinois, Yhdysvallat

Leveyspiiri: 41-21-07N, Pituuspiiri: 089-09-11W, korkeus merenpinnasta: 199 m

Tämänhetkinen sää

Tämä raportti tehtiin 20 minuuttia sitten, kello 01.55 UTC
Tuuli 8 kn etelästä
Lämpötila 25°C
Kosteus 74%
Ilmanpaine 1013 hPa
Näkyvyys: 16.1 km
selkeää

METAR: KVYS 270155Z AUTO 19008KT 10SM CLR 25/20 A2991 RMK AO2 LTG DSNT NW T02470197

Aika: 21:15 (02:15 UTC)


TAF: puuttuu

Säähavainnot ja -ennusteet yli 4000 lentoasemalta (METAR- ja TAF-raportit).

Käytössä olevat sääasemat on merkitty karttaan keltaisilla ja punaisilla pisteillä.

Aseta hiiri pisteen päälle nähdäksesi sääaseman nimen.

Klikkaa sitten nähdäksesi säähavainnot ja -ennusteet.

Kartan vaihtaminen: klikkaa mustalla rastilla varustettuja vihreitä pisteitä, niin voit zoomata sisään; viivalla varustettua vihreää pistettä, niin voit zoomata ulos tai vihreitä nuolia, niin pääset viereisille kartoille.


METAR-TAF: